sensor_id;sensor_type;location;lat;lon;timestamp;P1;durP1;ratioP1;P2;durP2;ratioP2
10715;SDS011;5409;42.620;23.316;2022-09-03T00:01:40;8.38;;;5.72;;
10715;SDS011;5409;42.620;23.316;2022-09-03T00:04:09;7.32;;;5.28;;
10715;SDS011;5409;42.620;23.316;2022-09-03T00:06:42;7.45;;;6.25;;
10715;SDS011;5409;42.620;23.316;2022-09-03T00:09:11;8.60;;;5.75;;
10715;SDS011;5409;42.620;23.316;2022-09-03T00:11:42;7.20;;;5.55;;
10715;SDS011;5409;42.620;23.316;2022-09-03T00:14:13;10.05;;;5.78;;
10715;SDS011;5409;42.620;23.316;2022-09-03T00:16:42;7.07;;;5.50;;
10715;SDS011;5409;42.620;23.316;2022-09-03T00:19:09;8.90;;;5.47;;
10715;SDS011;5409;42.620;23.316;2022-09-03T00:21:37;7.00;;;5.15;;
10715;SDS011;5409;42.620;23.316;2022-09-03T00:24:05;5.68;;;4.80;;
10715;SDS011;5409;42.620;23.316;2022-09-03T00:26:33;6.90;;;4.95;;
10715;SDS011;5409;42.620;23.316;2022-09-03T00:29:04;6.43;;;5.03;;
10715;SDS011;5409;42.620;23.316;2022-09-03T00:31:32;5.03;;;4.43;;
10715;SDS011;5409;42.620;23.316;2022-09-03T00:34:02;6.15;;;5.25;;
10715;SDS011;5409;42.620;23.316;2022-09-03T00:36:31;7.30;;;5.50;;
10715;SDS011;5409;42.620;23.316;2022-09-03T00:38:59;6.88;;;5.13;;
10715;SDS011;5409;42.620;23.316;2022-09-03T00:41:28;6.55;;;5.30;;
10715;SDS011;5409;42.620;23.316;2022-09-03T00:44:09;7.03;;;5.68;;
10715;SDS011;5409;42.620;23.316;2022-09-03T00:46:41;7.82;;;5.45;;
10715;SDS011;5409;42.620;23.316;2022-09-03T00:49:13;6.85;;;6.15;;
10715;SDS011;5409;42.620;23.316;2022-09-03T00:51:48;7.35;;;5.97;;
10715;SDS011;5409;42.620;23.316;2022-09-03T00:54:17;8.55;;;5.57;;
10715;SDS011;5409;42.620;23.316;2022-09-03T00:56:47;7.18;;;5.70;;
10715;SDS011;5409;42.620;23.316;2022-09-03T00:59:20;9.73;;;6.30;;
10715;SDS011;5409;42.620;23.316;2022-09-03T01:01:53;8.00;;;6.03;;
10715;SDS011;5409;42.620;23.316;2022-09-03T01:04:26;7.80;;;5.97;;
10715;SDS011;5409;42.620;23.316;2022-09-03T01:06:55;8.77;;;5.85;;
10715;SDS011;5409;42.620;23.316;2022-09-03T01:09:28;6.50;;;5.85;;
10715;SDS011;5409;42.620;23.316;2022-09-03T01:11:58;8.20;;;5.63;;
10715;SDS011;5409;42.620;23.316;2022-09-03T01:14:30;7.13;;;6.03;;
10715;SDS011;5409;42.620;23.316;2022-09-03T01:16:59;8.05;;;6.03;;
10715;SDS011;5409;42.620;23.316;2022-09-03T01:22:19;9.32;;;6.10;;
10715;SDS011;5409;42.620;23.316;2022-09-03T01:24:59;9.13;;;7.22;;
10715;SDS011;5409;42.620;23.316;2022-09-03T01:27:35;8.95;;;6.78;;
10715;SDS011;5409;42.620;23.316;2022-09-03T01:30:06;7.30;;;6.60;;
10715;SDS011;5409;42.620;23.316;2022-09-03T01:32:36;7.65;;;6.20;;
10715;SDS011;5409;42.620;23.316;2022-09-03T01:35:06;9.48;;;6.40;;
10715;SDS011;5409;42.620;23.316;2022-09-03T01:37:37;7.03;;;5.88;;
10715;SDS011;5409;42.620;23.316;2022-09-03T01:40:08;6.50;;;5.80;;
10715;SDS011;5409;42.620;23.316;2022-09-03T01:42:41;8.20;;;5.93;;
10715;SDS011;5409;42.620;23.316;2022-09-03T01:45:32;8.50;;;6.68;;
10715;SDS011;5409;42.620;23.316;2022-09-03T01:48:10;11.73;;;6.32;;
10715;SDS011;5409;42.620;23.316;2022-09-03T01:50:43;6.57;;;5.70;;
10715;SDS011;5409;42.620;23.316;2022-09-03T01:53:12;7.78;;;5.60;;
10715;SDS011;5409;42.620;23.316;2022-09-03T01:55:46;7.07;;;5.70;;
10715;SDS011;5409;42.620;23.316;2022-09-03T01:58:21;7.07;;;5.82;;
10715;SDS011;5409;42.620;23.316;2022-09-03T02:00:52;7.15;;;5.93;;
10715;SDS011;5409;42.620;23.316;2022-09-03T02:03:22;7.40;;;5.38;;
10715;SDS011;5409;42.620;23.316;2022-09-03T02:05:49;7.85;;;6.45;;
10715;SDS011;5409;42.620;23.316;2022-09-03T02:08:17;8.20;;;5.65;;
10715;SDS011;5409;42.620;23.316;2022-09-03T02:10:46;6.53;;;5.82;;
10715;SDS011;5409;42.620;23.316;2022-09-03T02:13:13;9.18;;;6.07;;
10715;SDS011;5409;42.620;23.316;2022-09-03T02:15:42;6.53;;;5.82;;
10715;SDS011;5409;42.620;23.316;2022-09-03T02:18:12;6.18;;;5.20;;
10715;SDS011;5409;42.620;23.316;2022-09-03T02:20:40;5.38;;;4.80;;
10715;SDS011;5409;42.620;23.316;2022-09-03T02:23:06;6.65;;;4.68;;
10715;SDS011;5409;42.620;23.316;2022-09-03T02:25:34;5.95;;;4.90;;
10715;SDS011;5409;42.620;23.316;2022-09-03T02:28:02;8.23;;;5.00;;
10715;SDS011;5409;42.620;23.316;2022-09-03T02:30:28;6.93;;;5.53;;
10715;SDS011;5409;42.620;23.316;2022-09-03T02:32:55;5.80;;;5.13;;
10715;SDS011;5409;42.620;23.316;2022-09-03T02:35:23;6.22;;;5.38;;
10715;SDS011;5409;42.620;23.316;2022-09-03T02:37:49;6.93;;;5.88;;
10715;SDS011;5409;42.620;23.316;2022-09-03T02:40:16;6.10;;;5.50;;
10715;SDS011;5409;42.620;23.316;2022-09-03T02:42:42;6.25;;;5.28;;
10715;SDS011;5409;42.620;23.316;2022-09-03T02:45:12;6.47;;;5.50;;
10715;SDS011;5409;42.620;23.316;2022-09-03T02:47:41;6.20;;;5.43;;
10715;SDS011;5409;42.620;23.316;2022-09-03T02:50:09;7.05;;;5.88;;
10715;SDS011;5409;42.620;23.316;2022-09-03T02:52:37;6.18;;;5.40;;
10715;SDS011;5409;42.620;23.316;2022-09-03T02:55:04;6.10;;;5.50;;
10715;SDS011;5409;42.620;23.316;2022-09-03T02:57:31;5.15;;;4.57;;
10715;SDS011;5409;42.620;23.316;2022-09-03T02:59:57;7.03;;;5.30;;
10715;SDS011;5409;42.620;23.316;2022-09-03T03:02:23;6.47;;;5.07;;
10715;SDS011;5409;42.620;23.316;2022-09-03T03:04:50;8.27;;;5.40;;
10715;SDS011;5409;42.620;23.316;2022-09-03T03:07:17;6.38;;;5.60;;
10715;SDS011;5409;42.620;23.316;2022-09-03T03:09:44;6.57;;;5.70;;
10715;SDS011;5409;42.620;23.316;2022-09-03T03:12:11;6.50;;;5.70;;
10715;SDS011;5409;42.620;23.316;2022-09-03T03:14:37;6.05;;;5.18;;
10715;SDS011;5409;42.620;23.316;2022-09-03T03:17:04;7.10;;;5.68;;
10715;SDS011;5409;42.620;23.316;2022-09-03T03:19:30;5.97;;;5.38;;
10715;SDS011;5409;42.620;23.316;2022-09-03T03:21:57;9.00;;;6.10;;
10715;SDS011;5409;42.620;23.316;2022-09-03T03:24:23;6.25;;;5.60;;
10715;SDS011;5409;42.620;23.316;2022-09-03T03:26:51;6.90;;;5.68;;
10715;SDS011;5409;42.620;23.316;2022-09-03T03:29:20;6.07;;;5.47;;
10715;SDS011;5409;42.620;23.316;2022-09-03T03:31:46;7.95;;;6.18;;
10715;SDS011;5409;42.620;23.316;2022-09-03T03:34:13;8.95;;;6.85;;
10715;SDS011;5409;42.620;23.316;2022-09-03T03:36:39;8.18;;;6.55;;
10715;SDS011;5409;42.620;23.316;2022-09-03T03:39:06;8.52;;;6.63;;
10715;SDS011;5409;42.620;23.316;2022-09-03T03:41:33;8.18;;;7.13;;
10715;SDS011;5409;42.620;23.316;2022-09-03T03:44:02;10.75;;;7.78;;
10715;SDS011;5409;42.620;23.316;2022-09-03T03:46:29;9.25;;;6.93;;
10715;SDS011;5409;42.620;23.316;2022-09-03T03:48:56;9.43;;;7.35;;
10715;SDS011;5409;42.620;23.316;2022-09-03T03:51:23;12.98;;;7.60;;
10715;SDS011;5409;42.620;23.316;2022-09-03T03:53:52;9.73;;;7.43;;
10715;SDS011;5409;42.620;23.316;2022-09-03T03:56:18;7.65;;;6.78;;
10715;SDS011;5409;42.620;23.316;2022-09-03T03:58:45;8.35;;;6.70;;
10715;SDS011;5409;42.620;23.316;2022-09-03T04:01:14;11.35;;;8.18;;
10715;SDS011;5409;42.620;23.316;2022-09-03T04:03:41;9.50;;;7.63;;
10715;SDS011;5409;42.620;23.316;2022-09-03T04:06:08;12.80;;;8.80;;
10715;SDS011;5409;42.620;23.316;2022-09-03T04:08:35;11.27;;;8.25;;
10715;SDS011;5409;42.620;23.316;2022-09-03T04:11:02;8.32;;;7.40;;
10715;SDS011;5409;42.620;23.316;2022-09-03T04:13:30;8.50;;;7.43;;
10715;SDS011;5409;42.620;23.316;2022-09-03T04:16:00;12.02;;;8.27;;
10715;SDS011;5409;42.620;23.316;2022-09-03T04:18:28;8.77;;;7.63;;
10715;SDS011;5409;42.620;23.316;2022-09-03T04:20:58;9.18;;;7.63;;
10715;SDS011;5409;42.620;23.316;2022-09-03T04:23:24;7.82;;;7.03;;
10715;SDS011;5409;42.620;23.316;2022-09-03T04:25:51;11.43;;;8.32;;
10715;SDS011;5409;42.620;23.316;2022-09-03T04:28:17;9.32;;;7.40;;
10715;SDS011;5409;42.620;23.316;2022-09-03T04:30:43;9.68;;;7.50;;
10715;SDS011;5409;42.620;23.316;2022-09-03T04:33:10;10.63;;;7.10;;
10715;SDS011;5409;42.620;23.316;2022-09-03T04:35:38;8.65;;;6.97;;
10715;SDS011;5409;42.620;23.316;2022-09-03T04:38:05;7.82;;;7.00;;
10715;SDS011;5409;42.620;23.316;2022-09-03T04:40:31;8.98;;;6.60;;
10715;SDS011;5409;42.620;23.316;2022-09-03T04:42:58;11.45;;;7.47;;
10715;SDS011;5409;42.620;23.316;2022-09-03T04:45:24;9.73;;;6.78;;
10715;SDS011;5409;42.620;23.316;2022-09-03T04:47:56;10.10;;;7.45;;
10715;SDS011;5409;42.620;23.316;2022-09-03T04:50:22;10.18;;;6.80;;
10715;SDS011;5409;42.620;23.316;2022-09-03T04:52:53;7.88;;;6.38;;
10715;SDS011;5409;42.620;23.316;2022-09-03T04:55:20;7.55;;;6.60;;
10715;SDS011;5409;42.620;23.316;2022-09-03T04:57:46;10.55;;;6.28;;
10715;SDS011;5409;42.620;23.316;2022-09-03T05:00:13;7.07;;;6.25;;
10715;SDS011;5409;42.620;23.316;2022-09-03T05:02:42;7.93;;;6.35;;
10715;SDS011;5409;42.620;23.316;2022-09-03T05:05:10;9.18;;;6.90;;
10715;SDS011;5409;42.620;23.316;2022-09-03T05:07:37;9.07;;;6.95;;
10715;SDS011;5409;42.620;23.316;2022-09-03T05:10:06;9.45;;;7.43;;
10715;SDS011;5409;42.620;23.316;2022-09-03T05:12:33;7.85;;;6.72;;
10715;SDS011;5409;42.620;23.316;2022-09-03T05:14:59;8.15;;;6.72;;
10715;SDS011;5409;42.620;23.316;2022-09-03T05:17:26;8.55;;;6.47;;
10715;SDS011;5409;42.620;23.316;2022-09-03T05:19:53;8.50;;;5.78;;
10715;SDS011;5409;42.620;23.316;2022-09-03T05:22:19;6.00;;;5.28;;
10715;SDS011;5409;42.620;23.316;2022-09-03T05:24:46;6.10;;;5.22;;
10715;SDS011;5409;42.620;23.316;2022-09-03T05:27:14;6.88;;;5.80;;
10715;SDS011;5409;42.620;23.316;2022-09-03T05:29:41;8.13;;;6.15;;
10715;SDS011;5409;42.620;23.316;2022-09-03T05:32:08;7.93;;;5.95;;
10715;SDS011;5409;42.620;23.316;2022-09-03T05:34:35;9.32;;;6.18;;
10715;SDS011;5409;42.620;23.316;2022-09-03T05:37:01;8.73;;;5.38;;
10715;SDS011;5409;42.620;23.316;2022-09-03T05:39:28;7.10;;;5.55;;
10715;SDS011;5409;42.620;23.316;2022-09-03T05:41:54;5.82;;;5.10;;
10715;SDS011;5409;42.620;23.316;2022-09-03T05:44:22;7.28;;;5.18;;
10715;SDS011;5409;42.620;23.316;2022-09-03T05:46:48;8.07;;;5.75;;
10715;SDS011;5409;42.620;23.316;2022-09-03T05:49:15;5.72;;;5.07;;
10715;SDS011;5409;42.620;23.316;2022-09-03T05:51:43;5.50;;;4.80;;
10715;SDS011;5409;42.620;23.316;2022-09-03T05:54:10;5.85;;;5.07;;
10715;SDS011;5409;42.620;23.316;2022-09-03T05:56:37;5.75;;;5.07;;
10715;SDS011;5409;42.620;23.316;2022-09-03T05:59:04;5.60;;;4.45;;
10715;SDS011;5409;42.620;23.316;2022-09-03T06:01:35;5.13;;;4.63;;
10715;SDS011;5409;42.620;23.316;2022-09-03T06:04:02;6.30;;;3.90;;
10715;SDS011;5409;42.620;23.316;2022-09-03T06:06:30;5.00;;;4.20;;
10715;SDS011;5409;42.620;23.316;2022-09-03T06:08:58;4.03;;;3.55;;
10715;SDS011;5409;42.620;23.316;2022-09-03T06:11:25;4.05;;;3.65;;
10715;SDS011;5409;42.620;23.316;2022-09-03T06:13:52;5.22;;;4.32;;
10715;SDS011;5409;42.620;23.316;2022-09-03T06:16:18;4.00;;;3.58;;
10715;SDS011;5409;42.620;23.316;2022-09-03T06:18:47;5.60;;;4.32;;
10715;SDS011;5409;42.620;23.316;2022-09-03T06:21:13;5.03;;;4.40;;
10715;SDS011;5409;42.620;23.316;2022-09-03T06:23:40;5.28;;;4.20;;
10715;SDS011;5409;42.620;23.316;2022-09-03T06:26:08;5.28;;;4.20;;
10715;SDS011;5409;42.620;23.316;2022-09-03T06:28:35;4.60;;;4.20;;
10715;SDS011;5409;42.620;23.316;2022-09-03T06:31:02;5.03;;;4.32;;
10715;SDS011;5409;42.620;23.316;2022-09-03T06:33:29;5.00;;;4.50;;
10715;SDS011;5409;42.620;23.316;2022-09-03T06:35:57;4.72;;;3.90;;
10715;SDS011;5409;42.620;23.316;2022-09-03T06:38:24;4.97;;;4.25;;
10715;SDS011;5409;42.620;23.316;2022-09-03T06:40:51;5.20;;;4.70;;
10715;SDS011;5409;42.620;23.316;2022-09-03T06:43:17;4.82;;;4.38;;
10715;SDS011;5409;42.620;23.316;2022-09-03T06:45:51;4.88;;;4.30;;
10715;SDS011;5409;42.620;23.316;2022-09-03T06:48:17;5.03;;;4.53;;
10715;SDS011;5409;42.620;23.316;2022-09-03T06:50:51;4.75;;;4.15;;
10715;SDS011;5409;42.620;23.316;2022-09-03T06:53:19;4.30;;;3.90;;
10715;SDS011;5409;42.620;23.316;2022-09-03T06:55:51;4.55;;;3.88;;
10715;SDS011;5409;42.620;23.316;2022-09-03T06:58:17;4.60;;;4.20;;
10715;SDS011;5409;42.620;23.316;2022-09-03T07:00:44;5.00;;;4.43;;
10715;SDS011;5409;42.620;23.316;2022-09-03T07:03:10;7.28;;;4.65;;
10715;SDS011;5409;42.620;23.316;2022-09-03T07:05:37;5.47;;;4.80;;
10715;SDS011;5409;42.620;23.316;2022-09-03T07:08:03;11.07;;;5.20;;
10715;SDS011;5409;42.620;23.316;2022-09-03T07:10:31;6.53;;;5.78;;
10715;SDS011;5409;42.620;23.316;2022-09-03T07:12:59;5.00;;;4.60;;
10715;SDS011;5409;42.620;23.316;2022-09-03T07:15:25;4.57;;;4.15;;
10715;SDS011;5409;42.620;23.316;2022-09-03T07:17:51;5.22;;;4.72;;
10715;SDS011;5409;42.620;23.316;2022-09-03T07:20:18;8.95;;;5.43;;
10715;SDS011;5409;42.620;23.316;2022-09-03T07:22:45;5.43;;;4.80;;
10715;SDS011;5409;42.620;23.316;2022-09-03T07:25:11;5.90;;;5.30;;
10715;SDS011;5409;42.620;23.316;2022-09-03T07:27:39;6.22;;;5.45;;
10715;SDS011;5409;42.620;23.316;2022-09-03T07:30:06;5.93;;;5.10;;
10715;SDS011;5409;42.620;23.316;2022-09-03T07:32:34;6.13;;;5.50;;
10715;SDS011;5409;42.620;23.316;2022-09-03T07:35:05;5.30;;;4.80;;
10715;SDS011;5409;42.620;23.316;2022-09-03T07:37:32;6.13;;;5.60;;
10715;SDS011;5409;42.620;23.316;2022-09-03T07:39:59;5.90;;;5.30;;
10715;SDS011;5409;42.620;23.316;2022-09-03T07:42:25;5.85;;;5.13;;
10715;SDS011;5409;42.620;23.316;2022-09-03T07:44:56;9.38;;;6.00;;
10715;SDS011;5409;42.620;23.316;2022-09-03T07:47:23;7.50;;;5.68;;
10715;SDS011;5409;42.620;23.316;2022-09-03T07:49:51;8.95;;;5.55;;
10715;SDS011;5409;42.620;23.316;2022-09-03T07:52:17;5.97;;;4.90;;
10715;SDS011;5409;42.620;23.316;2022-09-03T07:54:44;5.10;;;4.60;;
10715;SDS011;5409;42.620;23.316;2022-09-03T07:57:10;6.25;;;4.78;;
10715;SDS011;5409;42.620;23.316;2022-09-03T07:59:37;4.35;;;3.95;;
10715;SDS011;5409;42.620;23.316;2022-09-03T08:02:05;4.78;;;4.38;;
10715;SDS011;5409;42.620;23.316;2022-09-03T08:04:31;5.32;;;4.18;;
10715;SDS011;5409;42.620;23.316;2022-09-03T08:07:00;4.57;;;4.18;;
10715;SDS011;5409;42.620;23.316;2022-09-03T08:09:27;4.93;;;4.10;;
10715;SDS011;5409;42.620;23.316;2022-09-03T08:11:57;5.40;;;4.90;;
10715;SDS011;5409;42.620;23.316;2022-09-03T08:14:23;5.10;;;4.60;;
10715;SDS011;5409;42.620;23.316;2022-09-03T08:16:49;5.32;;;4.82;;
10715;SDS011;5409;42.620;23.316;2022-09-03T08:19:17;4.72;;;4.18;;
10715;SDS011;5409;42.620;23.316;2022-09-03T08:21:44;4.72;;;4.32;;
10715;SDS011;5409;42.620;23.316;2022-09-03T08:24:10;7.15;;;5.55;;
10715;SDS011;5409;42.620;23.316;2022-09-03T08:26:38;5.10;;;4.60;;
10715;SDS011;5409;42.620;23.316;2022-09-03T08:29:06;5.55;;;5.05;;
10715;SDS011;5409;42.620;23.316;2022-09-03T08:31:33;6.07;;;5.15;;
10715;SDS011;5409;42.620;23.316;2022-09-03T08:34:01;7.38;;;5.20;;
10715;SDS011;5409;42.620;23.316;2022-09-03T08:36:32;5.35;;;4.85;;
10715;SDS011;5409;42.620;23.316;2022-09-03T08:38:59;5.68;;;5.18;;
10715;SDS011;5409;42.620;23.316;2022-09-03T08:41:31;5.38;;;4.88;;
10715;SDS011;5409;42.620;23.316;2022-09-03T08:44:05;8.60;;;5.80;;
10715;SDS011;5409;42.620;23.316;2022-09-03T08:46:43;6.22;;;5.63;;
10715;SDS011;5409;42.620;23.316;2022-09-03T08:49:12;6.70;;;6.10;;
10715;SDS011;5409;42.620;23.316;2022-09-03T08:51:41;7.45;;;5.85;;
10715;SDS011;5409;42.620;23.316;2022-09-03T08:54:08;5.65;;;5.15;;
10715;SDS011;5409;42.620;23.316;2022-09-03T08:56:37;5.45;;;4.95;;
10715;SDS011;5409;42.620;23.316;2022-09-03T08:59:05;5.95;;;5.18;;
10715;SDS011;5409;42.620;23.316;2022-09-03T09:01:33;6.30;;;5.70;;
10715;SDS011;5409;42.620;23.316;2022-09-03T09:04:04;6.28;;;5.68;;
10715;SDS011;5409;42.620;23.316;2022-09-03T09:06:34;7.72;;;6.40;;
10715;SDS011;5409;42.620;23.316;2022-09-03T09:09:11;6.22;;;5.53;;
10715;SDS011;5409;42.620;23.316;2022-09-03T09:11:47;8.05;;;6.25;;
10715;SDS011;5409;42.620;23.316;2022-09-03T09:14:18;6.68;;;5.80;;
10715;SDS011;5409;42.620;23.316;2022-09-03T09:16:46;6.38;;;5.25;;
10715;SDS011;5409;42.620;23.316;2022-09-03T09:19:22;6.57;;;5.93;;
10715;SDS011;5409;42.620;23.316;2022-09-03T09:21:51;6.90;;;6.25;;
10715;SDS011;5409;42.620;23.316;2022-09-03T09:24:22;7.85;;;5.88;;
10715;SDS011;5409;42.620;23.316;2022-09-03T09:26:50;7.18;;;6.00;;
10715;SDS011;5409;42.620;23.316;2022-09-03T09:29:19;5.75;;;5.25;;
10715;SDS011;5409;42.620;23.316;2022-09-03T09:31:46;6.85;;;6.15;;
10715;SDS011;5409;42.620;23.316;2022-09-03T09:34:13;6.45;;;5.85;;
10715;SDS011;5409;42.620;23.316;2022-09-03T09:36:45;6.13;;;5.35;;
10715;SDS011;5409;42.620;23.316;2022-09-03T09:39:13;5.85;;;5.35;;
10715;SDS011;5409;42.620;23.316;2022-09-03T09:41:42;7.40;;;6.70;;
10715;SDS011;5409;42.620;23.316;2022-09-03T09:44:16;6.25;;;5.65;;
10715;SDS011;5409;42.620;23.316;2022-09-03T09:46:44;8.13;;;6.18;;
10715;SDS011;5409;42.620;23.316;2022-09-03T09:49:20;7.72;;;6.15;;
10715;SDS011;5409;42.620;23.316;2022-09-03T09:51:59;6.38;;;5.78;;
10715;SDS011;5409;42.620;23.316;2022-09-03T09:54:25;6.80;;;6.10;;
10715;SDS011;5409;42.620;23.316;2022-09-03T09:56:58;5.70;;;5.20;;
10715;SDS011;5409;42.620;23.316;2022-09-03T09:59:25;5.45;;;4.95;;
10715;SDS011;5409;42.620;23.316;2022-09-03T10:02:01;6.35;;;5.75;;
10715;SDS011;5409;42.620;23.316;2022-09-03T10:04:29;6.30;;;5.70;;
10715;SDS011;5409;42.620;23.316;2022-09-03T10:06:58;6.22;;;5.65;;
10715;SDS011;5409;42.620;23.316;2022-09-03T10:09:27;6.10;;;5.50;;
10715;SDS011;5409;42.620;23.316;2022-09-03T10:11:57;5.35;;;4.85;;
10715;SDS011;5409;42.620;23.316;2022-09-03T10:14:31;5.75;;;5.25;;
10715;SDS011;5409;42.620;23.316;2022-09-03T10:17:00;5.43;;;4.88;;
10715;SDS011;5409;42.620;23.316;2022-09-03T10:19:30;5.53;;;5.03;;
10715;SDS011;5409;42.620;23.316;2022-09-03T10:22:02;6.53;;;5.30;;
10715;SDS011;5409;42.620;23.316;2022-09-03T10:24:39;5.93;;;5.30;;
10715;SDS011;5409;42.620;23.316;2022-09-03T10:27:07;6.28;;;5.13;;
10715;SDS011;5409;42.620;23.316;2022-09-03T10:29:37;6.28;;;5.38;;
10715;SDS011;5409;42.620;23.316;2022-09-03T10:32:20;5.75;;;5.25;;
10715;SDS011;5409;42.620;23.316;2022-09-03T10:34:51;6.32;;;5.72;;
10715;SDS011;5409;42.620;23.316;2022-09-03T10:37:26;5.95;;;4.93;;
10715;SDS011;5409;42.620;23.316;2022-09-03T10:40:03;7.15;;;5.57;;
10715;SDS011;5409;42.620;23.316;2022-09-03T10:42:34;6.28;;;5.68;;
10715;SDS011;5409;42.620;23.316;2022-09-03T10:45:07;6.72;;;4.93;;
10715;SDS011;5409;42.620;23.316;2022-09-03T10:47:40;5.15;;;4.75;;
10715;SDS011;5409;42.620;23.316;2022-09-03T10:50:09;5.22;;;4.78;;
10715;SDS011;5409;42.620;23.316;2022-09-03T10:52:43;4.72;;;4.32;;
10715;SDS011;5409;42.620;23.316;2022-09-03T10:55:15;5.15;;;4.65;;
10715;SDS011;5409;42.620;23.316;2022-09-03T10:57:45;5.40;;;4.85;;
10715;SDS011;5409;42.620;23.316;2022-09-03T11:00:15;5.50;;;5.00;;
10715;SDS011;5409;42.620;23.316;2022-09-03T11:02:46;4.68;;;4.28;;
10715;SDS011;5409;42.620;23.316;2022-09-03T11:05:19;5.95;;;4.32;;
10715;SDS011;5409;42.620;23.316;2022-09-03T11:07:47;5.05;;;4.45;;
10715;SDS011;5409;42.620;23.316;2022-09-03T11:10:15;5.18;;;4.68;;
10715;SDS011;5409;42.620;23.316;2022-09-03T11:12:45;6.38;;;5.28;;
10715;SDS011;5409;42.620;23.316;2022-09-03T11:15:14;4.75;;;4.32;;
10715;SDS011;5409;42.620;23.316;2022-09-03T11:17:45;5.20;;;4.70;;
10715;SDS011;5409;42.620;23.316;2022-09-03T11:20:15;4.72;;;4.32;;
10715;SDS011;5409;42.620;23.316;2022-09-03T11:22:43;4.95;;;4.47;;
10715;SDS011;5409;42.620;23.316;2022-09-03T11:25:10;5.35;;;4.85;;
10715;SDS011;5409;42.620;23.316;2022-09-03T11:27:44;5.55;;;4.43;;
10715;SDS011;5409;42.620;23.316;2022-09-03T11:30:21;5.15;;;4.70;;
10715;SDS011;5409;42.620;23.316;2022-09-03T11:32:50;5.38;;;3.63;;
10715;SDS011;5409;42.620;23.316;2022-09-03T11:35:24;3.63;;;3.33;;
10715;SDS011;5409;42.620;23.316;2022-09-03T11:37:52;4.00;;;3.70;;
10715;SDS011;5409;42.620;23.316;2022-09-03T11:40:19;4.07;;;3.70;;
10715;SDS011;5409;42.620;23.316;2022-09-03T11:43:04;4.05;;;3.65;;
10715;SDS011;5409;42.620;23.316;2022-09-03T11:45:34;4.10;;;3.70;;
10715;SDS011;5409;42.620;23.316;2022-09-03T11:48:10;4.10;;;3.70;;
10715;SDS011;5409;42.620;23.316;2022-09-03T11:50:49;4.18;;;3.78;;
10715;SDS011;5409;42.620;23.316;2022-09-03T11:53:21;3.80;;;3.47;;
10715;SDS011;5409;42.620;23.316;2022-09-03T11:55:51;3.42;;;3.13;;
10715;SDS011;5409;42.620;23.316;2022-09-03T11:58:20;3.58;;;3.22;;
10715;SDS011;5409;42.620;23.316;2022-09-03T12:00:48;3.88;;;2.80;;
10715;SDS011;5409;42.620;23.316;2022-09-03T12:03:22;3.33;;;2.83;;
10715;SDS011;5409;42.620;23.316;2022-09-03T12:05:57;3.47;;;3.17;;
10715;SDS011;5409;42.620;23.316;2022-09-03T12:08:35;3.47;;;2.88;;
10715;SDS011;5409;42.620;23.316;2022-09-03T12:11:09;3.30;;;3.00;;
10715;SDS011;5409;42.620;23.316;2022-09-03T12:13:45;5.28;;;3.13;;
10715;SDS011;5409;42.620;23.316;2022-09-03T12:19:14;4.00;;;3.40;;
10715;SDS011;5409;42.620;23.316;2022-09-03T12:21:47;3.53;;;3.22;;
10715;SDS011;5409;42.620;23.316;2022-09-03T12:24:14;3.97;;;3.03;;
10715;SDS011;5409;42.620;23.316;2022-09-03T12:26:42;3.47;;;3.17;;
10715;SDS011;5409;42.620;23.316;2022-09-03T12:29:19;3.28;;;2.97;;
10715;SDS011;5409;42.620;23.316;2022-09-03T12:31:45;3.33;;;3.03;;
10715;SDS011;5409;42.620;23.316;2022-09-03T12:34:16;4.20;;;3.20;;
10715;SDS011;5409;42.620;23.316;2022-09-03T12:36:43;4.97;;;3.47;;
10715;SDS011;5409;42.620;23.316;2022-09-03T12:39:11;3.40;;;3.10;;
10715;SDS011;5409;42.620;23.316;2022-09-03T12:41:38;4.78;;;3.33;;
10715;SDS011;5409;42.620;23.316;2022-09-03T12:44:18;3.03;;;2.80;;
10715;SDS011;5409;42.620;23.316;2022-09-03T12:46:58;3.63;;;2.80;;
10715;SDS011;5409;42.620;23.316;2022-09-03T12:49:26;3.45;;;3.15;;
10715;SDS011;5409;42.620;23.316;2022-09-03T12:51:57;3.05;;;2.78;;
10715;SDS011;5409;42.620;23.316;2022-09-03T12:54:25;3.70;;;3.30;;
10715;SDS011;5409;42.620;23.316;2022-09-03T12:56:53;4.00;;;3.60;;
10715;SDS011;5409;42.620;23.316;2022-09-03T12:59:21;4.20;;;3.60;;
10715;SDS011;5409;42.620;23.316;2022-09-03T13:01:49;3.78;;;3.47;;
10715;SDS011;5409;42.620;23.316;2022-09-03T13:04:17;4.47;;;4.07;;
10715;SDS011;5409;42.620;23.316;2022-09-03T13:06:47;3.78;;;3.47;;
10715;SDS011;5409;42.620;23.316;2022-09-03T13:09:15;4.43;;;4.03;;
10715;SDS011;5409;42.620;23.316;2022-09-03T13:11:44;4.70;;;3.70;;
10715;SDS011;5409;42.620;23.316;2022-09-03T13:14:11;5.53;;;3.63;;
10715;SDS011;5409;42.620;23.316;2022-09-03T13:19:21;5.82;;;4.43;;
10715;SDS011;5409;42.620;23.316;2022-09-03T13:21:53;6.13;;;4.60;;
10715;SDS011;5409;42.620;23.316;2022-09-03T13:24:25;4.10;;;3.70;;
10715;SDS011;5409;42.620;23.316;2022-09-03T13:26:56;5.72;;;4.25;;
10715;SDS011;5409;42.620;23.316;2022-09-03T13:29:32;4.05;;;3.60;;
10715;SDS011;5409;42.620;23.316;2022-09-03T13:32:07;4.63;;;4.15;;
10715;SDS011;5409;42.620;23.316;2022-09-03T13:34:36;4.93;;;4.00;;
10715;SDS011;5409;42.620;23.316;2022-09-03T13:37:10;5.93;;;3.70;;
10715;SDS011;5409;42.620;23.316;2022-09-03T13:39:39;4.57;;;3.70;;
10715;SDS011;5409;42.620;23.316;2022-09-03T13:42:08;4.10;;;3.70;;
10715;SDS011;5409;42.620;23.316;2022-09-03T13:44:40;5.28;;;3.58;;
10715;SDS011;5409;42.620;23.316;2022-09-03T13:47:09;4.97;;;3.85;;
10715;SDS011;5409;42.620;23.316;2022-09-03T13:49:39;3.72;;;3.20;;
10715;SDS011;5409;42.620;23.316;2022-09-03T13:52:26;3.90;;;3.60;;
10715;SDS011;5409;42.620;23.316;2022-09-03T13:54:56;3.50;;;3.20;;
10715;SDS011;5409;42.620;23.316;2022-09-03T13:57:29;5.15;;;3.38;;
10715;SDS011;5409;42.620;23.316;2022-09-03T13:59:59;4.07;;;3.67;;
10715;SDS011;5409;42.620;23.316;2022-09-03T14:02:27;4.88;;;3.05;;
10715;SDS011;5409;42.620;23.316;2022-09-03T14:05:04;3.92;;;3.33;;
10715;SDS011;5409;42.620;23.316;2022-09-03T14:07:41;4.22;;;3.83;;
10715;SDS011;5409;42.620;23.316;2022-09-03T14:10:15;4.22;;;3.83;;
10715;SDS011;5409;42.620;23.316;2022-09-03T14:12:44;6.15;;;4.22;;
10715;SDS011;5409;42.620;23.316;2022-09-03T14:15:16;4.50;;;4.10;;
10715;SDS011;5409;42.620;23.316;2022-09-03T14:17:45;4.30;;;3.90;;
10715;SDS011;5409;42.620;23.316;2022-09-03T14:20:16;4.80;;;3.88;;
10715;SDS011;5409;42.620;23.316;2022-09-03T14:22:47;4.93;;;4.00;;
10715;SDS011;5409;42.620;23.316;2022-09-03T14:25:15;4.32;;;3.75;;
10715;SDS011;5409;42.620;23.316;2022-09-03T14:27:42;5.45;;;4.50;;
10715;SDS011;5409;42.620;23.316;2022-09-03T14:30:16;7.63;;;5.78;;
10715;SDS011;5409;42.620;23.316;2022-09-03T14:32:44;10.30;;;7.63;;
10715;SDS011;5409;42.620;23.316;2022-09-03T14:37:51;4.10;;;3.70;;
10715;SDS011;5409;42.620;23.316;2022-09-03T14:40:21;4.70;;;4.30;;
10715;SDS011;5409;42.620;23.316;2022-09-03T14:42:53;10.90;;;7.15;;
10715;SDS011;5409;42.620;23.316;2022-09-03T14:45:23;19.38;;;13.35;;
10715;SDS011;5409;42.620;23.316;2022-09-03T14:48:03;7.32;;;5.82;;
10715;SDS011;5409;42.620;23.316;2022-09-03T14:50:39;5.80;;;4.30;;
10715;SDS011;5409;42.620;23.316;2022-09-03T14:53:16;5.03;;;3.67;;
10715;SDS011;5409;42.620;23.316;2022-09-03T14:58:34;7.97;;;4.03;;
10715;SDS011;5409;42.620;23.316;2022-09-03T15:01:05;3.80;;;3.40;;
10715;SDS011;5409;42.620;23.316;2022-09-03T15:03:46;4.63;;;4.22;;
10715;SDS011;5409;42.620;23.316;2022-09-03T15:06:16;4.40;;;4.00;;
10715;SDS011;5409;42.620;23.316;2022-09-03T15:08:53;5.75;;;3.80;;
10715;SDS011;5409;42.620;23.316;2022-09-03T15:11:24;4.50;;;3.90;;
10715;SDS011;5409;42.620;23.316;2022-09-03T15:13:52;4.78;;;3.85;;
10715;SDS011;5409;42.620;23.316;2022-09-03T15:16:26;4.97;;;4.00;;